Time,TemperatureF,DewpointF,PressureIn,WindDirection,WindDirectionDegrees,WindSpeedMPH,WindSpeedGustMPH,Humidity,HourlyPrecipIn,Conditions,Clouds,dailyrainin,SoftwareType,DateUTC
2013-04-14 00:03:00,33.1,26.0,29.97,NE,46,0.0,0.0,75,0.00,OVC,OVC,0.00,WeatherDisplay:10.37,2013-04-14 05:03:00,
2013-04-14 00:13:00,33.3,26.2,29.97,ESE,122,0.0,0.0,75,0.00,OVC,OVC,0.00,WeatherDisplay:10.37,2013-04-14 05:13:00,
2013-04-14 00:23:00,33.4,26.3,29.97,ESE,115,1.0,2.0,75,0.00,OVC,OVC,0.00,WeatherDisplay:10.37,2013-04-14 05:23:00,
2013-04-14 00:33:00,33.4,26.0,29.97,NE,37,1.0,2.0,74,0.00,OVC,OVC,0.00,WeatherDisplay:10.37,2013-04-14 05:33:00,
2013-04-14 00:43:00,33.4,26.0,29.97,ESE,113,0.0,0.0,74,0.00,OVC,OVC,0.00,WeatherDisplay:10.37,2013-04-14 05:43:00,
2013-04-14 00:53:00,33.4,26.0,29.97,ESE,109,0.0,0.0,74,0.00,OVC,OVC,0.00,WeatherDisplay:10.37,2013-04-14 05:53:00,
2013-04-14 01:03:00,33.2,25.8,29.97,SE,135,1.0,3.0,74,0.00,BKN,BKN,0.00,WeatherDisplay:10.37,2013-04-14 06:03:00,
2013-04-14 01:13:00,32.9,25.2,29.97,SE,127,0.0,1.0,73,0.00,BKN,BKN,0.00,WeatherDisplay:10.37,2013-04-14 06:13:00,
2013-04-14 01:23:00,32.7,25.7,29.97,SE,135,0.0,3.0,75,0.00,BKN,BKN,0.00,WeatherDisplay:10.37,2013-04-14 06:23:00,
2013-04-14 01:33:00,32.7,26.3,29.97,SE,135,1.0,3.0,77,0.00,BKN,BKN,0.00,WeatherDisplay:10.37,2013-04-14 06:33:00,
2013-04-14 01:43:00,32.9,26.8,29.96,East,87,1.0,3.0,78,0.00,BKN,BKN,0.00,WeatherDisplay:10.37,2013-04-14 06:43:00,
2013-04-14 01:53:00,32.7,26.6,29.96,East,83,1.0,3.0,78,0.00,BKN,BKN,0.00,WeatherDisplay:10.37,2013-04-14 06:53:00,
2013-04-14 02:03:00,32.9,26.7,29.96,East,89,1.0,2.0,78,0.00,OVC,OVC,0.00,WeatherDisplay:10.37,2013-04-14 07:03:00,
2013-04-14 02:13:00,32.9,26.8,29.95,ESE,117,1.0,3.0,78,0.00,OVC,OVC,0.00,WeatherDisplay:10.37,2013-04-14 07:13:00,
2013-04-14 02:23:00,33.1,26.7,29.95,ESE,121,1.0,5.0,77,0.00,OVC,OVC,0.00,WeatherDisplay:10.37,2013-04-14 07:23:00,
2013-04-14 02:33:00,33.3,26.5,29.95,ESE,102,0.0,3.0,76,0.00,OVC,OVC,0.00,WeatherDisplay:10.37,2013-04-14 07:33:00,
2013-04-14 02:43:00,33.4,26.0,29.95,SE,125,1.0,3.0,74,0.00,OVC,OVC,0.00,WeatherDisplay:10.37,2013-04-14 07:43:00,
2013-04-14 02:53:00,33.6,25.9,29.94,SE,128,2.0,5.0,73,0.00,OVC,OVC,0.00,WeatherDisplay:10.37,2013-04-14 07:53:00,
2013-04-14 03:03:00,33.6,26.2,29.95,ESE,110,2.0,5.0,74,0.00,OVC,OVC,0.00,WeatherDisplay:10.37,2013-04-14 08:03:00,
2013-04-14 03:13:00,33.3,25.9,29.95,SE,128,2.0,7.0,74,0.00,OVC,OVC,0.00,WeatherDisplay:10.37,2013-04-14 08:13:00,
2013-04-14 03:22:00,33.3,26.2,29.95,SE,135,3.0,7.0,75,0.00,OVC,OVC,0.00,WeatherDisplay:10.37,2013-04-14 08:22:00,
2013-04-14 03:33:00,33.1,26.0,29.96,SE,125,1.0,6.0,75,0.00,OVC,OVC,0.00,WeatherDisplay:10.37,2013-04-14 08:33:00,
2013-04-14 03:43:00,33.1,26.3,29.96,SE,135,1.0,5.0,76,0.00,OVC,OVC,0.00,WeatherDisplay:10.37,2013-04-14 08:43:00,
2013-04-14 03:52:00,33.1,26.3,29.96,SE,124,1.0,6.0,76,0.00,OVC,OVC,0.00,WeatherDisplay:10.37,2013-04-14 08:52:00,
2013-04-14 04:03:00,33.3,26.5,29.97,SE,131,3.0,7.0,76,0.00,OVC,OVC,0.00,WeatherDisplay:10.37,2013-04-14 09:03:00,
2013-04-14 04:13:00,33.4,26.4,29.96,SE,125,2.0,7.0,75,0.00,OVC,OVC,0.00,WeatherDisplay:10.37,2013-04-14 09:13:00,
2013-04-14 04:22:00,33.4,26.7,29.97,ESE,121,2.0,6.0,76,0.00,OVC,OVC,0.00,WeatherDisplay:10.37,2013-04-14 09:22:00,
2013-04-14 04:32:00,33.4,26.7,29.97,ESE,107,1.0,7.0,76,0.00,OVC,OVC,0.00,WeatherDisplay:10.37,2013-04-14 09:32:00,
2013-04-14 04:42:00,33.4,26.4,29.97,East,95,0.0,5.0,75,0.00,OVC,OVC,0.00,WeatherDisplay:10.37,2013-04-14 09:42:00,
2013-04-14 04:52:00,33.2,27.1,29.98,SSE,165,5.0,8.0,78,0.00,OVC,OVC,0.00,WeatherDisplay:10.37,2013-04-14 09:52:00,
2013-04-14 05:03:00,32.5,28.0,29.97,SE,131,5.0,10.0,83,0.00,OVC,OVC,0.00,WeatherDisplay:10.37,2013-04-14 10:03:00,
2013-04-14 05:12:00,31.6,28.8,29.97,ESE,114,3.0,9.0,89,0.00,OVC,OVC,0.00,WeatherDisplay:10.37,2013-04-14 10:12:00,
2013-04-14 05:22:00,31.3,29.0,29.96,ESE,116,2.0,9.0,91,0.00,-SN,-SN,0.00,WeatherDisplay:10.37,2013-04-14 10:22:00,
2013-04-14 05:32:00,31.1,29.6,29.96,ENE,77,5.0,9.0,94,0.00,-SN,-SN,0.00,WeatherDisplay:10.37,2013-04-14 10:32:00,
2013-04-14 05:42:00,30.9,29.9,29.95,East,83,6.0,9.0,96,0.00,-SN,-SN,0.00,WeatherDisplay:10.37,2013-04-14 10:42:00,
2013-04-14 05:52:00,30.9,30.4,29.96,ESE,114,5.0,8.0,98,0.00,-SN,-SN,0.00,WeatherDisplay:10.37,2013-04-14 10:52:00,
2013-04-14 06:02:00,30.9,30.7,29.95,ESE,115,5.0,10.0,99,0.00,-SN,-SN,0.00,WeatherDisplay:10.37,2013-04-14 11:02:00,
2013-04-14 06:12:00,30.7,30.5,29.96,SE,126,5.0,14.0,99,0.00,-SN,-SN,0.00,WeatherDisplay:10.37,2013-04-14 11:12:00,
2013-04-14 06:22:00,30.7,30.5,29.95,East,92,3.0,14.0,99,0.00,-SN,-SN,0.00,WeatherDisplay:10.37,2013-04-14 11:22:00,
2013-04-14 06:33:00,30.7,30.5,29.94,ENE,77,6.0,15.0,99,0.00,OVC,OVC,0.00,WeatherDisplay:10.37,2013-04-14 11:33:00,
2013-04-14 06:43:00,30.9,30.7,29.95,East,95,5.0,13.0,99,0.00,OVC,OVC,0.00,WeatherDisplay:10.37,2013-04-14 11:43:00,
2013-04-14 06:54:00,31.1,30.8,29.95,ESE,108,3.0,10.0,99,0.00,-PL,-PL,0.00,WeatherDisplay:10.37,2013-04-14 11:54:00,
2013-04-14 07:03:00,31.1,30.9,29.95,East,83,9.0,15.0,99,0.00,-PL,-PL,0.00,WeatherDisplay:10.37,2013-04-14 12:03:00,
2013-04-14 07:13:00,31.1,30.9,29.94,East,81,6.0,12.0,99,0.00,-PL,-PL,0.00,WeatherDisplay:10.37,2013-04-14 12:13:00,
2013-04-14 07:23:00,31.1,30.9,29.93,East,90,7.0,15.0,99,0.00,-PL,-PL,0.00,WeatherDisplay:10.37,2013-04-14 12:23:00,
2013-04-14 07:33:00,31.3,31.0,29.93,East,90,6.0,13.0,99,0.00,OVC,OVC,0.00,WeatherDisplay:10.37,2013-04-14 12:33:00,
2013-04-14 07:43:00,31.3,31.0,29.92,East,90,6.0,16.0,99,0.00,OVC,OVC,0.00,WeatherDisplay:10.37,2013-04-14 12:43:00,
2013-04-14 07:53:00,31.3,31.0,29.92,East,90,6.0,13.0,99,0.00,OVC,OVC,0.00,WeatherDisplay:10.37,2013-04-14 12:53:00,
2013-04-14 08:03:00,31.3,31.0,29.91,East,90,6.0,15.0,99,0.00,OVC,OVC,0.00,WeatherDisplay:10.37,2013-04-14 13:03:00,
2013-04-14 08:13:00,31.5,31.2,29.90,East,90,5.0,13.0,99,0.00,OVC,OVC,0.00,WeatherDisplay:10.37,2013-04-14 13:13:00,
2013-04-14 08:23:00,31.5,31.2,29.91,East,90,3.0,16.0,99,0.00,OVC,OVC,0.00,WeatherDisplay:10.37,2013-04-14 13:23:00,
2013-04-14 08:33:00,31.5,31.2,29.90,East,90,5.0,15.0,99,0.00,RA,RA,0.01,WeatherDisplay:10.37,2013-04-14 13:33:00,
2013-04-14 08:43:00,31.6,31.4,29.89,East,90,0.0,14.0,99,0.00,OVC,OVC,0.01,WeatherDisplay:10.37,2013-04-14 13:43:00,
2013-04-14 08:53:00,31.8,31.6,29.90,East,90,0.0,0.0,99,0.00,OVC,OVC,0.01,WeatherDisplay:10.37,2013-04-14 13:53:00,
2013-04-14 09:03:00,32.0,31.8,29.90,East,90,0.0,0.0,99,0.01,RA,RA,0.02,WeatherDisplay:10.37,2013-04-14 14:03:00,
2013-04-14 09:13:00,32.3,32.0,29.90,East,90,0.0,0.0,99,0.00,OVC,OVC,0.02,WeatherDisplay:10.37,2013-04-14 14:13:00,
2013-04-14 09:23:00,32.8,32.6,29.90,East,90,0.0,0.0,99,0.00,OVC,OVC,0.02,WeatherDisplay:10.37,2013-04-14 14:23:00,
2013-04-14 09:33:00,32.9,32.7,29.90,East,90,0.0,0.0,99,0.01,RA,RA,0.04,WeatherDisplay:10.37,2013-04-14 14:33:00,
2013-04-14 09:43:00,32.9,32.7,29.90,East,90,3.0,18.0,99,0.00,OVC,OVC,0.04,WeatherDisplay:10.37,2013-04-14 14:43:00,
2013-04-14 09:53:00,33.1,32.8,29.90,East,90,3.0,16.0,99,0.00,RA,RA,0.05,WeatherDisplay:10.37,2013-04-14 14:53:00,
2013-04-14 10:03:00,33.3,33.0,29.91,ESE,107,10.0,17.0,99,0.00,OVC,OVC,0.05,WeatherDisplay:10.37,2013-04-14 15:03:00,
2013-04-14 10:13:00,33.1,32.8,29.92,East,96,3.0,14.0,99,0.00,OVC,OVC,0.05,WeatherDisplay:10.37,2013-04-14 15:13:00,
2013-04-14 10:23:00,33.4,33.2,29.91,East,82,9.0,24.0,99,0.00,RA,RA,0.06,WeatherDisplay:10.37,2013-04-14 15:23:00,
2013-04-14 10:33:00,34.0,33.7,29.90,East,92,5.0,12.0,99,0.01,RA,RA,0.07,WeatherDisplay:10.37,2013-04-14 15:33:00,
2013-04-14 10:43:00,34.5,34.3,29.90,East,101,9.0,22.0,99,0.00,RA,RA,0.08,WeatherDisplay:10.37,2013-04-14 15:43:00,
2013-04-14 10:53:00,35.2,35.0,29.89,ESE,108,12.0,21.0,99,0.00,RA,RA,0.09,WeatherDisplay:10.37,2013-04-14 15:53:00,
2013-04-14 11:03:00,36.2,35.4,29.89,ESE,103,8.0,22.0,97,0.00,-RA,-RA,0.11,WeatherDisplay:10.37,2013-04-14 16:03:00,
2013-04-14 11:13:00,36.5,35.2,29.87,ESE,118,8.0,23.0,95,0.00,-RA,-RA,0.12,WeatherDisplay:10.37,2013-04-14 16:13:00,
2013-04-14 11:23:00,36.5,34.9,29.86,East,100,12.0,28.0,94,0.00,OVC,OVC,0.12,WeatherDisplay:10.37,2013-04-14 16:23:00,
2013-04-14 11:33:00,38.5,36.1,29.86,East,90,10.0,25.0,91,0.00,OVC,OVC,0.12,WeatherDisplay:10.37,2013-04-14 16:33:00,
2013-04-14 11:43:00,38.3,35.1,29.85,East,84,16.0,29.0,88,0.00,OVC,OVC,0.12,WeatherDisplay:10.37,2013-04-14 16:43:00,
2013-04-14 11:53:00,40.1,36.8,29.84,East,97,10.0,29.0,88,0.00,OVC,OVC,0.12,WeatherDisplay:10.37,2013-04-14 16:53:00,
2013-04-14 12:03:00,40.6,35.9,29.84,ENE,76,14.0,28.0,83,0.00,OVC,OVC,0.12,WeatherDisplay:10.37,2013-04-14 17:03:00,
2013-04-14 12:13:00,40.1,36.0,29.83,ESE,113,13.0,32.0,85,0.01,RA,RA,0.13,WeatherDisplay:10.37,2013-04-14 17:13:00,
2013-04-14 12:23:00,40.8,36.4,29.82,ESE,119,14.0,30.0,84,0.00,OVC,OVC,0.13,WeatherDisplay:10.37,2013-04-14 17:23:00,
2013-04-14 12:34:00,41.9,36.5,29.81,ESE,115,15.0,33.0,81,0.00,OVC,OVC,0.13,WeatherDisplay:10.37,2013-04-14 17:34:00,
2013-04-14 12:43:00,43.1,37.0,29.81,East,96,10.0,40.0,79,0.00,OVC,OVC,0.13,WeatherDisplay:10.37,2013-04-14 17:43:00,
2013-04-14 12:53:00,42.8,36.7,29.81,East,81,10.0,35.0,79,0.00,OVC,OVC,0.13,WeatherDisplay:10.37,2013-04-14 17:53:00,
2013-04-14 13:03:00,43.5,37.1,29.81,ESE,120,10.0,23.0,78,0.00,OVC,OVC,0.13,WeatherDisplay:10.37,2013-04-14 18:03:00,
2013-04-14 13:13:00,44.5,37.1,29.81,ESE,102,13.0,26.0,75,0.00,OVC,OVC,0.13,WeatherDisplay:10.37,2013-04-14 18:13:00,
2013-04-14 13:23:00,43.6,36.2,29.81,East,97,12.0,24.0,75,0.00,OVC,OVC,0.13,WeatherDisplay:10.37,2013-04-14 18:23:00,
2013-04-14 13:33:00,43.7,36.3,29.80,East,100,14.0,30.0,75,0.00,OVC,OVC,0.13,WeatherDisplay:10.37,2013-04-14 18:33:00,
2013-04-14 13:43:00,44.6,36.5,29.80,SE,131,14.0,32.0,73,0.00,OVC,OVC,0.13,WeatherDisplay:10.37,2013-04-14 18:43:00,
2013-04-14 14:04:00,44.3,36.2,29.79,East,96,15.0,32.0,73,0.00,BKN,BKN,0.13,WeatherDisplay:10.37,2013-04-14 19:04:00,
2013-04-14 14:13:00,44.9,37.1,29.78,East,95,14.0,24.0,74,0.00,BKN,BKN,0.13,WeatherDisplay:10.37,2013-04-14 19:13:00,
2013-04-14 14:23:00,45.4,37.3,29.77,ESE,107,9.0,28.0,73,0.00,BKN,BKN,0.13,WeatherDisplay:10.37,2013-04-14 19:23:00,
2013-04-14 14:33:00,47.6,38.3,29.76,East,99,9.0,24.0,70,0.00,BKN,BKN,0.13,WeatherDisplay:10.37,2013-04-14 19:33:00,
2013-04-14 14:43:00,47.5,37.8,29.75,ESE,106,13.0,32.0,69,0.00,BKN,BKN,0.13,WeatherDisplay:10.37,2013-04-14 19:43:00,
2013-04-14 14:53:00,48.0,38.7,29.75,ESE,114,10.0,33.0,70,0.00,BKN,BKN,0.13,WeatherDisplay:10.37,2013-04-14 19:53:00,
2013-04-14 15:03:00,49.1,39.0,29.74,ESE,117,16.0,33.0,68,0.00,SCT,SCT,0.13,WeatherDisplay:10.37,2013-04-14 20:03:00,
2013-04-14 15:13:00,49.8,38.9,29.73,ESE,107,15.0,39.0,66,0.00,SCT,SCT,0.13,WeatherDisplay:10.37,2013-04-14 20:13:00,
2013-04-14 15:23:00,49.3,39.2,29.71,ENE,73,14.0,33.0,68,0.00,SCT,SCT,0.13,WeatherDisplay:10.37,2013-04-14 20:23:00,
2013-04-14 15:33:00,49.8,39.7,29.71,ESE,104,13.0,32.0,68,0.00,SCT,SCT,0.13,WeatherDisplay:10.37,2013-04-14 20:33:00,
2013-04-14 15:43:00,49.8,38.9,29.71,East,100,16.0,38.0,66,0.00,SCT,SCT,0.13,WeatherDisplay:10.37,2013-04-14 20:43:00,
2013-04-14 15:53:00,50.1,39.5,29.71,East,97,13.0,28.0,67,0.00,SCT,SCT,0.13,WeatherDisplay:10.37,2013-04-14 20:53:00,
2013-04-14 16:03:00,50.9,39.9,29.70,ESE,115,14.0,29.0,66,0.00,FEW,FEW,0.13,WeatherDisplay:10.37,2013-04-14 21:03:00,
2013-04-14 16:13:00,51.1,39.7,29.69,East,95,14.0,29.0,65,0.00,FEW,FEW,0.13,WeatherDisplay:10.37,2013-04-14 21:13:00,
2013-04-14 16:23:00,48.6,48.3,29.65,SSW,195,1.0,7.0,99,0.00,CLR,CLR,0.34,WeatherDisplay:10.37,2013-04-14 21:23:00,
2013-04-14 16:24:00,50.3,39.7,29.69,ESE,111,17.0,32.0,67,0.00,FEW,FEW,0.13,WeatherDisplay:10.37,2013-04-14 21:24:00,
2013-04-14 16:33:00,49.1,39.4,29.69,ESE,119,13.0,33.0,69,0.00,FEW,FEW,0.13,WeatherDisplay:10.37,2013-04-14 21:33:00,
2013-04-14 16:43:00,49.5,39.7,29.68,East,88,13.0,31.0,69,0.00,FEW,FEW,0.13,WeatherDisplay:10.37,2013-04-14 21:43:00,
2013-04-14 16:53:00,48.2,47.9,29.68,SW,225,5.0,9.0,99,0.00,CLR,CLR,0.34,WeatherDisplay:10.37,2013-04-14 21:53:00,
2013-04-14 16:54:00,48.4,39.4,29.67,East,94,16.0,30.0,71,0.00,FEW,FEW,0.13,WeatherDisplay:10.37,2013-04-14 21:54:00,
2013-04-14 17:03:00,47.9,39.7,29.67,ESE,104,9.0,30.0,73,0.00,CLR,CLR,0.13,WeatherDisplay:10.37,2013-04-14 22:03:00,
2013-04-14 17:13:00,48.9,48.7,29.69,SSW,198,5.0,11.0,99,0.00,CLR,CLR,0.34,WeatherDisplay:10.37,2013-04-14 22:13:00,
2013-04-14 17:14:00,48.2,39.2,29.66,East,82,15.0,36.0,71,0.00,CLR,CLR,0.13,WeatherDisplay:10.37,2013-04-14 22:14:00,
2013-04-14 17:23:00,48.0,39.4,29.66,SE,135,16.0,25.0,72,0.00,CLR,CLR,0.13,WeatherDisplay:10.37,2013-04-14 22:23:00,
2013-04-14 17:33:00,46.9,39.1,29.65,East,86,14.0,24.0,74,0.00,CLR,CLR,0.13,WeatherDisplay:10.37,2013-04-14 22:33:00,
2013-04-14 17:43:00,48.4,48.1,29.68,SW,230,3.0,9.0,99,0.00,CLR,CLR,0.34,WeatherDisplay:10.37,2013-04-14 22:43:00,
2013-04-14 17:44:00,46.4,38.6,29.65,ENE,78,8.0,31.0,74,0.00,CLR,CLR,0.13,WeatherDisplay:10.37,2013-04-14 22:44:00,
2013-04-14 17:53:00,46.9,38.7,29.65,East,86,18.0,29.0,73,0.00,CLR,CLR,0.13,WeatherDisplay:10.37,2013-04-14 22:53:00,
2013-04-14 18:03:00,46.6,38.7,29.65,ENE,63,16.0,24.0,74,0.00,CLR,CLR,0.13,WeatherDisplay:10.37,2013-04-14 23:03:00,
2013-04-14 18:13:00,47.7,47.4,29.69,SW,225,5.0,9.0,99,0.00,CLR,CLR,0.34,WeatherDisplay:10.37,2013-04-14 23:13:00,
2013-04-14 18:14:00,45.7,38.5,29.65,East,83,12.0,30.0,76,0.00,CLR,CLR,0.13,WeatherDisplay:10.37,2013-04-14 23:14:00,
2013-04-14 18:23:00,45.4,38.6,29.64,ENE,75,8.0,24.0,77,0.00,CLR,CLR,0.13,WeatherDisplay:10.37,2013-04-14 23:23:00,
2013-04-14 18:33:00,44.8,38.7,29.65,ENE,64,8.0,18.0,79,0.00,CLR,CLR,0.13,WeatherDisplay:10.37,2013-04-14 23:33:00,
2013-04-14 18:43:00,44.4,38.6,29.63,ESE,108,9.0,22.0,80,0.00,CLR,CLR,0.13,WeatherDisplay:10.37,2013-04-14 23:43:00,
2013-04-14 18:53:00,44.1,38.6,29.63,ESE,102,13.0,38.0,81,0.00,CLR,CLR,0.13,WeatherDisplay:10.37,2013-04-14 23:53:00,
2013-04-14 19:03:00,46.9,46.7,29.69,SSE,153,3.0,8.0,99,0.00,CLR,CLR,0.34,WeatherDisplay:10.37,2013-04-15 00:03:00,
2013-04-14 19:04:00,43.9,38.7,29.63,ESE,104,12.0,22.0,82,0.00,CLR,CLR,0.13,WeatherDisplay:10.37,2013-04-15 00:04:00,
2013-04-14 19:13:00,43.7,38.9,29.64,ESE,112,14.0,23.0,83,0.00,CLR,CLR,0.13,WeatherDisplay:10.37,2013-04-15 00:13:00,
2013-04-14 19:23:00,46.8,46.5,29.69,SW,216,2.0,5.0,99,0.00,CLR,CLR,0.34,WeatherDisplay:10.37,2013-04-15 00:23:00,
2013-04-14 19:24:00,43.7,38.9,29.64,ENE,76,5.0,22.0,83,0.00,CLR,CLR,0.13,WeatherDisplay:10.37,2013-04-15 00:24:00,
2013-04-14 19:33:00,46.9,46.7,29.69,South,183,2.0,8.0,99,0.00,CLR,CLR,0.34,WeatherDisplay:10.37,2013-04-15 00:33:00,
2013-04-14 19:34:00,43.7,39.2,29.64,East,87,5.0,17.0,84,0.00,CLR,CLR,0.13,WeatherDisplay:10.37,2013-04-15 00:34:00,
2013-04-14 19:43:00,43.7,39.5,29.63,East,85,8.0,20.0,85,0.00,CLR,CLR,0.13,WeatherDisplay:10.37,2013-04-15 00:43:00,
2013-04-14 19:53:00,43.5,39.3,29.63,East,94,6.0,17.0,85,0.00,CLR,CLR,0.13,WeatherDisplay:10.37,2013-04-15 00:53:00,
2013-04-14 20:03:00,43.5,39.3,29.62,East,89,7.0,21.0,85,0.00,FEW,FEW,0.13,WeatherDisplay:10.37,2013-04-15 01:03:00,
2013-04-14 20:13:00,48.6,48.3,29.71,SW,225,1.0,7.0,99,0.00,CLR,CLR,0.34,WeatherDisplay:10.37,2013-04-15 01:13:00,
2013-04-14 20:14:00,43.7,39.8,29.63,East,80,5.0,16.0,86,0.00,FEW,FEW,0.13,WeatherDisplay:10.37,2013-04-15 01:14:00,
2013-04-14 20:23:00,47.3,47.0,29.72,SSW,205,2.0,5.0,99,0.00,CLR,CLR,0.34,WeatherDisplay:10.37,2013-04-15 01:23:00,
2013-04-14 20:33:00,44.2,40.3,29.62,SE,125,12.0,24.0,86,0.00,FEW,FEW,0.13,WeatherDisplay:10.37,2013-04-15 01:33:00,
2013-04-14 20:43:00,44.4,40.5,29.61,ESE,109,7.0,18.0,86,0.00,FEW,FEW,0.13,WeatherDisplay:10.37,2013-04-15 01:43:00,
2013-04-14 20:53:00,44.8,40.8,29.61,East,98,5.0,23.0,86,0.00,FEW,FEW,0.13,WeatherDisplay:10.37,2013-04-15 01:53:00,
2013-04-14 21:03:00,45.0,41.0,29.60,ESE,113,12.0,21.0,86,0.00,OVC,OVC,0.13,WeatherDisplay:10.37,2013-04-15 02:03:00,
2013-04-14 21:13:00,45.1,41.5,29.59,ESE,113,6.0,20.0,87,0.00,OVC,OVC,0.13,WeatherDisplay:10.37,2013-04-15 02:13:00,
2013-04-14 21:23:00,45.7,42.0,29.59,SE,128,8.0,26.0,87,0.00,OVC,OVC,0.13,WeatherDisplay:10.37,2013-04-15 02:23:00,
2013-04-14 21:34:00,46.1,42.1,29.60,ESE,116,10.0,22.0,86,0.00,OVC,OVC,0.13,WeatherDisplay:10.37,2013-04-15 02:34:00,
2013-04-14 21:43:00,46.4,42.7,29.59,ESE,111,8.0,18.0,87,0.00,OVC,OVC,0.13,WeatherDisplay:10.37,2013-04-15 02:43:00,
2013-04-14 21:53:00,46.9,42.9,29.59,ENE,75,8.0,18.0,86,0.00,OVC,OVC,0.13,WeatherDisplay:10.37,2013-04-15 02:53:00,
2013-04-14 22:03:00,47.3,43.3,29.58,ESE,121,9.0,18.0,86,0.00,BKN,BKN,0.13,WeatherDisplay:10.37,2013-04-15 03:03:00,
2013-04-14 22:13:00,48.0,43.7,29.57,SE,134,7.0,20.0,85,0.00,BKN,BKN,0.13,WeatherDisplay:10.37,2013-04-15 03:13:00,
2013-04-14 22:23:00,48.2,43.9,29.57,East,96,7.0,16.0,85,0.00,BKN,BKN,0.13,WeatherDisplay:10.37,2013-04-15 03:23:00,
2013-04-14 22:33:00,48.8,44.5,29.56,ESE,117,10.0,17.0,85,0.00,BKN,BKN,0.13,WeatherDisplay:10.37,2013-04-15 03:33:00,
2013-04-14 22:44:00,49.9,45.2,29.56,SE,136,12.0,28.0,84,0.00,BKN,BKN,0.13,WeatherDisplay:10.37,2013-04-15 03:44:00,
2013-04-14 23:03:00,51.6,45.7,29.56,NE,51,9.0,22.0,80,0.00,BKN,BKN,0.13,WeatherDisplay:10.37,2013-04-15 04:03:00,
2013-04-14 23:14:00,52.2,45.9,29.55,NNE,28,9.0,22.0,79,0.00,BKN,BKN,0.13,WeatherDisplay:10.37,2013-04-15 04:14:00,
2013-04-14 23:24:00,52.7,46.7,29.55,ESE,111,5.0,15.0,80,0.00,BKN,BKN,0.13,WeatherDisplay:10.37,2013-04-15 04:24:00,
2013-04-14 23:34:00,52.9,46.9,29.54,ESE,115,7.0,17.0,80,0.00,BKN,BKN,0.13,WeatherDisplay:10.37,2013-04-15 04:34:00,
2013-04-14 23:43:00,53.4,47.1,29.53,SE,130,8.0,16.0,79,0.00,BKN,BKN,0.13,WeatherDisplay:10.37,2013-04-15 04:43:00,
2013-04-14 23:53:00,54.0,47.3,29.52,SE,136,8.0,17.0,78,0.00,BKN,BKN,0.13,WeatherDisplay:10.37,2013-04-15 04:53:00,